Time;durP1;ratioP1;P1;durP2;ratioP2;P2;SDS_P1;SDS_P2;PMS_P1;PMS_P2;Temp;Humidity;BMP_temperature;BMP_pressure;BME280_temperature;BME280_humidity;BME280_pressure;Samples;Min_cycle;Max_cycle;Signal;HPM_P1;HPM_P2
2024/01/21 00:01:36;;;;;;;15.97;8.97;;;1.20;87.50;;;;;;6185317;23;20249;-62
2024/01/21 00:04:05;;;;;;;14.97;9.37;;;1.20;87.60;;;;;;6184514;23;20189;-61
2024/01/21 00:06:32;;;;;;;13.87;9.13;;;1.20;87.70;;;;;;6185244;23;20206;-61
2024/01/21 00:08:59;;;;;;;15.30;9.50;;;1.10;87.80;;;;;;6185244;23;20236;-62
2024/01/21 00:11:26;;;;;;;14.87;9.63;;;1.10;87.90;;;;;;6185064;23;20201;-60
2024/01/21 00:13:53;;;;;;;14.90;8.90;;;1.10;88.10;;;;;;6184990;23;20231;-61
2024/01/21 00:16:20;;;;;;;16.73;9.87;;;1.10;88.30;;;;;;6184857;23;20171;-61
2024/01/21 00:18:47;;;;;;;14.10;10.07;;;1.00;88.30;;;;;;6185202;23;20182;-60
2024/01/21 00:21:14;;;;;;;17.10;10.17;;;1.00;88.40;;;;;;6184991;23;20170;-61
2024/01/21 00:23:44;;;;;;;21.10;10.90;;;0.90;88.40;;;;;;6185322;23;20166;-60
2024/01/21 00:26:11;;;;;;;18.93;10.87;;;0.90;88.50;;;;;;6184903;23;20200;-61
2024/01/21 00:28:39;;;;;;;20.00;9.93;;;0.90;88.80;;;;;;6185041;23;20186;-60
2024/01/21 00:31:06;;;;;;;15.30;10.00;;;0.80;88.80;;;;;;6185009;23;20181;-60
2024/01/21 00:33:33;;;;;;;18.00;9.27;;;0.80;89.00;;;;;;6185028;23;20188;-61
2024/01/21 00:36:00;;;;;;;13.43;9.30;;;0.80;89.10;;;;;;6184902;23;20633;-60
2024/01/21 00:38:27;;;;;;;12.03;8.80;;;0.70;89.20;;;;;;6185063;23;20189;-61
2024/01/21 00:40:54;;;;;;;14.17;10.23;;;0.70;89.30;;;;;;6184954;23;20171;-60
2024/01/21 00:43:21;;;;;;;16.20;9.60;;;0.70;89.50;;;;;;6184887;23;20584;-60
2024/01/21 00:45:48;;;;;;;16.53;9.20;;;0.70;89.60;;;;;;6184703;23;20184;-61
2024/01/21 00:48:15;;;;;;;14.40;10.33;;;0.70;89.70;;;;;;6184934;23;20181;-60
2024/01/21 00:50:42;;;;;;;15.47;10.20;;;0.70;89.80;;;;;;6185210;23;20180;-61
2024/01/21 00:53:09;;;;;;;18.07;10.30;;;0.60;89.80;;;;;;6184475;23;20214;-61
2024/01/21 00:55:37;;;;;;;14.93;10.00;;;0.60;89.80;;;;;;6185146;23;20175;-61
2024/01/21 00:58:04;;;;;;;16.37;9.60;;;0.60;89.90;;;;;;6184809;23;20194;-60
2024/01/21 01:00:31;;;;;;;14.57;9.47;;;0.60;90.00;;;;;;6186172;23;20172;-61
2024/01/21 01:02:59;;;;;;;15.83;9.43;;;0.60;90.00;;;;;;6186591;23;20178;-61
2024/01/21 01:05:26;;;;;;;16.83;9.13;;;0.60;90.10;;;;;;6186266;23;20204;-60
2024/01/21 01:07:54;;;;;;;13.77;9.20;;;0.60;90.10;;;;;;6187115;23;20927;-61
2024/01/21 01:10:21;;;;;;;13.63;9.07;;;0.60;90.10;;;;;;6186706;23;20179;-60
2024/01/21 01:12:48;;;;;;;14.87;9.20;;;0.50;90.10;;;;;;6186850;23;20189;-60
2024/01/21 01:15:15;;;;;;;13.37;8.80;;;0.50;90.20;;;;;;6186360;23;20223;-61
2024/01/21 01:17:42;;;;;;;13.97;9.33;;;0.50;90.20;;;;;;6186330;23;20173;-61
2024/01/21 01:20:10;;;;;;;13.83;9.27;;;0.50;90.30;;;;;;6186532;23;20182;-61
2024/01/21 01:22:37;;;;;;;13.33;9.03;;;0.50;90.30;;;;;;6187006;23;20205;-60
2024/01/21 01:25:04;;;;;;;13.73;9.37;;;0.50;90.30;;;;;;6186619;23;20471;-60
2024/01/21 01:27:31;;;;;;;15.73;9.40;;;0.50;90.30;;;;;;6186723;23;20226;-61
2024/01/21 01:29:59;;;;;;;14.63;9.37;;;0.50;90.30;;;;;;6186188;23;20181;-61
2024/01/21 01:32:26;;;;;;;13.67;9.53;;;0.50;90.40;;;;;;6186614;23;20198;-61
2024/01/21 01:34:55;;;;;;;12.30;8.57;;;0.50;90.40;;;;;;6186712;23;20272;-60
2024/01/21 01:37:22;;;;;;;12.10;9.30;;;0.50;90.40;;;;;;6186587;23;20195;-61
2024/01/21 01:39:49;;;;;;;14.20;9.03;;;0.40;90.40;;;;;;6186362;23;20191;-61
2024/01/21 01:42:16;;;;;;;10.63;8.17;;;0.40;90.50;;;;;;6186454;23;20170;-61
2024/01/21 01:44:44;;;;;;;16.30;8.87;;;0.40;90.50;;;;;;6186784;23;20178;-61
2024/01/21 01:47:11;;;;;;;14.33;8.60;;;0.40;90.40;;;;;;6186313;23;20183;-61
2024/01/21 01:49:40;;;;;;;15.90;8.97;;;0.40;90.40;;;;;;6186579;23;20173;-61
2024/01/21 01:52:11;;;;;;;11.77;8.27;;;0.40;90.50;;;;;;6186345;23;20172;-60
2024/01/21 01:54:40;;;;;;;12.37;8.67;;;0.30;90.50;;;;;;6186020;23;20201;-61
2024/01/21 01:57:07;;;;;;;16.53;9.03;;;0.30;90.50;;;;;;6186625;23;20173;-61
2024/01/21 01:59:38;;;;;;;11.87;8.50;;;0.30;90.40;;;;;;6159908;23;20194;-60
2024/01/21 02:02:06;;;;;;;11.33;8.67;;;0.20;90.70;;;;;;6186471;23;20177;-61
2024/01/21 02:04:33;;;;;;;12.87;9.00;;;0.20;90.50;;;;;;6185705;23;20253;-60
2024/01/21 02:07:01;;;;;;;13.27;9.13;;;0.20;90.60;;;;;;6186395;23;20157;-60
2024/01/21 02:09:28;;;;;;;13.70;9.03;;;0.10;90.60;;;;;;6160104;23;20965;-61
2024/01/21 02:11:55;;;;;;;15.03;8.07;;;0.10;90.60;;;;;;6185862;23;20169;-61
2024/01/21 02:14:22;;;;;;;13.47;7.43;;;0.10;90.60;;;;;;6185807;23;20212;-60
2024/01/21 02:16:49;;;;;;;11.97;8.30;;;0.00;90.60;;;;;;6186066;23;20184;-60
2024/01/21 02:19:27;;;;;;;14.63;9.33;;;0.00;90.70;;;;;;6185962;23;20250;-60
2024/01/21 02:21:54;;;;;;;13.43;8.60;;;0.10;90.80;;;;;;6186162;23;20158;-60
2024/01/21 02:24:31;;;;;;;11.53;8.60;;;0.00;90.70;;;;;;6186066;23;20196;-61
2024/01/21 02:26:58;;;;;;;11.77;8.23;;;0.00;90.70;;;;;;6186240;23;20159;-61
2024/01/21 02:29:26;;;;;;;12.87;8.37;;;0.00;90.70;;;;;;6185899;23;20189;-61
2024/01/21 02:31:54;;;;;;;12.03;7.30;;;0.00;90.70;;;;;;6185909;23;20238;-60
2024/01/21 02:34:21;;;;;;;14.17;9.27;;;0.00;90.70;;;;;;6185771;23;20280;-61
2024/01/21 02:36:48;;;;;;;12.23;8.77;;;0.00;90.80;;;;;;6160203;23;20185;-60
2024/01/21 02:39:16;;;;;;;14.07;9.60;;;0.00;90.80;;;;;;6186185;23;20656;-60
2024/01/21 02:41:43;;;;;;;11.37;8.20;;;0.00;90.90;;;;;;6186449;23;20187;-60
2024/01/21 02:44:10;;;;;;;13.90;8.93;;;0.00;90.90;;;;;;6185853;23;20522;-61
2024/01/21 02:46:37;;;;;;;11.03;7.53;;;-0.10;90.80;;;;;;6186095;23;20181;-61
2024/01/21 02:49:04;;;;;;;12.97;8.63;;;-0.10;90.80;;;;;;6185893;23;20177;-60
2024/01/21 02:51:31;;;;;;;12.93;8.43;;;-0.10;90.90;;;;;;6185981;23;20182;-60
2024/01/21 02:53:58;;;;;;;12.43;7.77;;;-0.10;90.90;;;;;;6185711;23;20198;-60
2024/01/21 02:56:26;;;;;;;11.37;7.80;;;-0.10;91.00;;;;;;6186109;23;20460;-61
2024/01/21 02:58:53;;;;;;;11.40;8.17;;;-0.10;91.00;;;;;;6185984;23;20613;-60
2024/01/21 03:01:20;;;;;;;14.53;8.80;;;-0.10;91.00;;;;;;6185762;23;20181;-60
2024/01/21 03:03:48;;;;;;;11.70;8.00;;;-0.10;91.00;;;;;;6185563;23;20173;-60
2024/01/21 03:06:15;;;;;;;11.67;7.80;;;-0.10;91.00;;;;;;6185531;23;20594;-60
2024/01/21 03:08:42;;;;;;;15.90;8.23;;;-0.10;91.10;;;;;;6185822;23;20526;-61
2024/01/21 03:11:09;;;;;;;12.50;8.60;;;-0.10;91.10;;;;;;6185597;23;20176;-60
2024/01/21 03:13:36;;;;;;;11.73;8.20;;;-0.10;91.00;;;;;;6185631;23;20231;-60
2024/01/21 03:16:03;;;;;;;14.97;8.27;;;-0.10;90.90;;;;;;6184937;23;20479;-61
2024/01/21 03:18:30;;;;;;;11.87;8.17;;;-0.10;91.00;;;;;;6185967;23;20177;-61
2024/01/21 03:20:57;;;;;;;14.50;7.80;;;-0.10;91.00;;;;;;6185175;23;20173;-61
2024/01/21 03:23:24;;;;;;;13.83;8.20;;;-0.10;91.10;;;;;;6185376;23;20184;-60
2024/01/21 03:25:51;;;;;;;11.03;7.87;;;-0.10;91.00;;;;;;6184194;23;20193;-60
2024/01/21 03:28:18;;;;;;;9.63;7.90;;;-0.10;90.90;;;;;;6185390;23;20180;-60
2024/01/21 03:30:46;;;;;;;13.23;8.57;;;-0.20;90.90;;;;;;6159524;23;20193;-60
2024/01/21 03:33:13;;;;;;;10.07;6.60;;;-0.20;90.90;;;;;;6185344;23;20185;-60
2024/01/21 03:35:40;;;;;;;9.33;7.07;;;-0.20;90.90;;;;;;6184782;23;20228;-61
2024/01/21 03:38:07;;;;;;;11.33;8.43;;;-0.20;90.80;;;;;;6185957;23;20224;-61
2024/01/21 03:40:34;;;;;;;13.00;7.30;;;-0.20;90.80;;;;;;6184711;23;20589;-60
2024/01/21 03:43:01;;;;;;;11.30;7.13;;;-0.20;90.80;;;;;;6134265;23;20178;-61
2024/01/21 03:45:28;;;;;;;12.40;7.77;;;-0.20;90.90;;;;;;6185235;23;20229;-60
2024/01/21 03:47:56;;;;;;;9.30;6.90;;;-0.20;90.90;;;;;;6184741;23;20590;-60
2024/01/21 03:50:23;;;;;;;11.10;8.20;;;-0.30;90.80;;;;;;6185198;23;20212;-60
2024/01/21 03:52:50;;;;;;;8.33;6.60;;;-0.30;90.80;;;;;;6185454;23;20193;-60
2024/01/21 03:55:19;;;;;;;9.67;7.20;;;-0.30;90.80;;;;;;6185081;23;20197;-60
2024/01/21 03:57:47;;;;;;;14.37;7.13;;;-0.30;90.80;;;;;;6185817;23;20179;-61
2024/01/21 04:00:14;;;;;;;8.97;6.20;;;-0.30;90.80;;;;;;6184951;23;20175;-60
2024/01/21 04:02:41;;;;;;;8.63;6.53;;;-0.30;90.80;;;;;;6184929;23;20158;-60
2024/01/21 04:05:08;;;;;;;13.77;6.73;;;-0.30;90.80;;;;;;6185107;23;20199;-60
2024/01/21 04:07:36;;;;;;;10.20;7.37;;;-0.30;90.80;;;;;;6184836;23;20172;-60
2024/01/21 04:10:04;;;;;;;9.53;6.23;;;-0.30;90.80;;;;;;6185496;23;20177;-60
2024/01/21 04:12:31;;;;;;;14.73;6.60;;;-0.40;90.70;;;;;;6184898;23;20236;-60
2024/01/21 04:14:58;;;;;;;9.63;5.97;;;-0.40;90.80;;;;;;6185170;23;20193;-60
2024/01/21 04:17:25;;;;;;;9.10;6.33;;;-0.40;90.90;;;;;;6184779;23;20187;-61
2024/01/21 04:19:52;;;;;;;9.40;6.67;;;-0.40;90.90;;;;;;6184676;23;20176;-60
2024/01/21 04:22:21;;;;;;;8.83;7.17;;;-0.40;90.90;;;;;;6185058;23;20449;-60
2024/01/21 04:24:48;;;;;;;9.63;6.33;;;-0.40;90.90;;;;;;6185266;23;20265;-60
2024/01/21 04:27:15;;;;;;;8.83;6.97;;;-0.40;90.90;;;;;;6159684;23;20175;-60
2024/01/21 04:29:43;;;;;;;11.37;6.07;;;-0.40;90.90;;;;;;6185004;23;20166;-60
2024/01/21 04:32:10;;;;;;;10.10;6.77;;;-0.40;90.90;;;;;;6185557;23;20172;-60
2024/01/21 04:34:37;;;;;;;8.23;6.40;;;-0.40;90.90;;;;;;6186116;23;20225;-60
2024/01/21 04:37:04;;;;;;;9.33;6.13;;;-0.50;90.90;;;;;;6162255;23;20187;-60
2024/01/21 04:39:32;;;;;;;10.40;6.23;;;-0.50;90.90;;;;;;6188372;23;20479;-60
2024/01/21 04:41:59;;;;;;;7.57;5.83;;;-0.50;90.90;;;;;;6188283;23;20529;-60
2024/01/21 04:44:26;;;;;;;6.70;5.53;;;-0.50;90.90;;;;;;6188114;23;20176;-60
2024/01/21 04:46:53;;;;;;;8.20;6.10;;;-0.50;90.90;;;;;;6162384;23;20176;-60
2024/01/21 04:49:20;;;;;;;9.13;6.30;;;-0.50;90.90;;;;;;6162542;23;20194;-60
2024/01/21 04:51:47;;;;;;;11.60;6.00;;;-0.40;90.90;;;;;;6188004;23;20205;-60
2024/01/21 04:54:14;;;;;;;8.10;5.80;;;-0.40;90.90;;;;;;6162053;23;20192;-60
2024/01/21 04:56:41;;;;;;;8.53;5.80;;;-0.50;90.80;;;;;;6188437;23;20185;-60
2024/01/21 04:59:09;;;;;;;9.83;5.40;;;-0.50;90.80;;;;;;6188373;23;20224;-60
2024/01/21 05:01:38;;;;;;;10.60;5.50;;;-0.50;90.80;;;;;;6187906;23;20174;-60
2024/01/21 05:04:06;;;;;;;8.80;5.60;;;-0.50;90.80;;;;;;6188035;23;20189;-60
2024/01/21 05:06:33;;;;;;;8.00;5.63;;;-0.50;90.80;;;;;;6187547;23;20260;-61
2024/01/21 05:09:00;;;;;;;7.17;4.93;;;-0.50;90.80;;;;;;6188055;23;20178;-60
2024/01/21 05:11:27;;;;;;;7.50;4.50;;;-0.50;90.80;;;;;;6187781;23;20201;-60
2024/01/21 05:13:54;;;;;;;8.40;4.80;;;-0.50;90.70;;;;;;6188203;23;20194;-60
2024/01/21 05:16:21;;;;;;;7.50;4.57;;;-0.50;90.70;;;;;;6162255;23;20174;-60
2024/01/21 05:18:48;;;;;;;7.80;5.37;;;-0.50;90.70;;;;;;6162075;23;20192;-60
2024/01/21 05:21:20;;;;;;;6.50;5.10;;;-0.40;90.70;;;;;;6187641;23;20170;-60
2024/01/21 05:23:50;;;;;;;5.47;4.27;;;-0.40;90.70;;;;;;6188254;23;20173;-60
2024/01/21 05:26:17;;;;;;;6.97;5.13;;;-0.40;90.70;;;;;;6187671;23;20450;-60
2024/01/21 05:28:46;;;;;;;7.40;4.77;;;-0.40;90.60;;;;;;6188190;23;20174;-60
2024/01/21 05:31:14;;;;;;;5.13;4.07;;;-0.50;90.50;;;;;;6161878;23;20182;-60
2024/01/21 05:33:41;;;;;;;7.53;5.17;;;-0.50;90.50;;;;;;6187656;23;20183;-60
2024/01/21 05:36:09;;;;;;;5.17;4.50;;;-0.50;90.50;;;;;;6188246;23;20229;-61
2024/01/21 05:38:36;;;;;;;6.57;4.20;;;-0.50;90.50;;;;;;6187443;23;20301;-61
2024/01/21 05:41:04;;;;;;;7.80;4.90;;;-0.50;90.40;;;;;;6187782;23;20197;-60
2024/01/21 05:43:31;;;;;;;9.50;4.73;;;-0.50;90.30;;;;;;6187527;23;20240;-60
2024/01/21 05:45:58;;;;;;;7.13;4.53;;;-0.60;90.40;;;;;;6188018;23;20186;-60
2024/01/21 05:48:25;;;;;;;8.63;4.83;;;-0.60;90.40;;;;;;6187420;23;20232;-60
2024/01/21 05:50:52;;;;;;;8.13;4.70;;;-0.60;90.40;;;;;;6187973;23;20627;-60
2024/01/21 05:53:19;;;;;;;5.10;4.20;;;-0.60;90.40;;;;;;6187869;23;20180;-60
2024/01/21 05:55:47;;;;;;;7.27;4.83;;;-0.60;90.40;;;;;;6187949;23;20757;-60
2024/01/21 05:58:15;;;;;;;8.03;4.67;;;-0.60;90.50;;;;;;6187745;23;20177;-60
2024/01/21 06:00:42;;;;;;;8.03;5.10;;;-0.60;90.50;;;;;;6188004;23;20472;-60
2024/01/21 06:03:10;;;;;;;6.67;4.77;;;-0.70;90.40;;;;;;6187664;23;20596;-60
2024/01/21 06:05:37;;;;;;;7.23;4.33;;;-0.70;90.40;;;;;;6187132;23;20291;-60
2024/01/21 06:08:04;;;;;;;7.70;5.20;;;-0.70;90.50;;;;;;6187280;23;20177;-60
2024/01/21 06:10:31;;;;;;;8.70;5.07;;;-0.80;90.50;;;;;;6187579;23;20612;-60
2024/01/21 06:12:59;;;;;;;5.93;4.23;;;-0.80;90.50;;;;;;6187083;23;20239;-60
2024/01/21 06:15:26;;;;;;;7.20;4.60;;;-0.80;90.50;;;;;;6187552;23;20198;-60
2024/01/21 06:17:53;;;;;;;9.53;5.20;;;-0.80;90.60;;;;;;6187371;23;20199;-60
2024/01/21 06:20:20;;;;;;;8.07;5.30;;;-0.80;90.60;;;;;;6187641;23;20176;-60
2024/01/21 06:22:47;;;;;;;7.03;5.50;;;-0.90;90.60;;;;;;6187529;23;20655;-59
2024/01/21 06:25:15;;;;;;;6.83;4.63;;;-0.90;90.60;;;;;;6187398;23;20279;-60
2024/01/21 06:27:42;;;;;;;7.67;4.93;;;-0.90;90.70;;;;;;6187731;23;20429;-59
2024/01/21 06:30:21;;;;;;;7.40;4.87;;;-0.90;90.70;;;;;;6187164;23;20176;-60
2024/01/21 06:32:48;;;;;;;5.83;4.37;;;-0.80;90.70;;;;;;6187289;23;20643;-60
2024/01/21 06:35:28;;;;;;;6.33;4.30;;;-0.80;90.70;;;;;;6187251;23;20620;-59
2024/01/21 06:37:56;;;;;;;8.50;5.43;;;-0.80;90.70;;;;;;6187454;23;20253;-59
2024/01/21 06:40:23;;;;;;;6.93;4.83;;;-0.70;90.80;;;;;;6187471;23;20184;-60
2024/01/21 06:42:50;;;;;;;7.47;4.33;;;-0.70;90.70;;;;;;6186919;23;20226;-59
2024/01/21 06:45:18;;;;;;;8.83;5.03;;;-0.70;90.70;;;;;;6187196;23;20197;-60
2024/01/21 06:47:45;;;;;;;7.47;4.80;;;-0.70;90.70;;;;;;6187072;23;20176;-60
2024/01/21 06:50:13;;;;;;;8.37;5.27;;;-0.80;90.60;;;;;;6187079;23;20190;-60
2024/01/21 06:52:40;;;;;;;8.37;4.83;;;-0.70;90.60;;;;;;6187091;23;20215;-59
2024/01/21 06:55:09;;;;;;;7.83;4.77;;;-0.70;90.70;;;;;;6186904;23;20268;-59
2024/01/21 06:57:36;;;;;;;6.90;5.00;;;-0.60;90.70;;;;;;6187008;23;20236;-59
2024/01/21 07:00:05;;;;;;;8.83;5.03;;;-0.50;90.40;;;;;;6186744;23;20533;-60
2024/01/21 07:02:32;;;;;;;5.63;4.10;;;-0.50;90.30;;;;;;6187197;23;20179;-60
2024/01/21 07:04:59;;;;;;;9.67;5.57;;;-0.50;90.20;;;;;;6186531;23;20459;-59
2024/01/21 07:07:26;;;;;;;9.40;5.57;;;-0.50;90.10;;;;;;6161448;23;20530;-60
2024/01/21 07:09:54;;;;;;;7.50;4.73;;;-0.50;90.20;;;;;;6186495;23;20611;-59
2024/01/21 07:12:21;;;;;;;8.73;4.83;;;-0.40;90.20;;;;;;6187142;23;20251;-59
2024/01/21 07:14:50;;;;;;;10.30;5.33;;;-0.40;90.40;;;;;;6186862;23;20217;-60
2024/01/21 07:17:17;;;;;;;9.03;5.00;;;-0.40;90.00;;;;;;6160995;23;20173;-59
2024/01/21 07:19:44;;;;;;;4.97;4.23;;;-0.40;90.00;;;;;;6186294;23;20231;-58
2024/01/21 07:22:11;;;;;;;6.40;5.00;;;-0.20;90.10;;;;;;6187015;23;20444;-59
2024/01/21 07:24:38;;;;;;;8.13;4.83;;;-0.10;90.00;;;;;;6185987;23;20259;-59
2024/01/21 07:27:05;;;;;;;7.43;5.33;;;0.10;89.40;;;;;;6161293;23;20176;-59
2024/01/21 07:29:33;;;;;;;11.80;5.03;;;0.10;88.90;;;;;;6186649;23;20180;-59
2024/01/21 07:32:00;;;;;;;7.20;4.57;;;0.10;88.90;;;;;;6186935;23;20244;-59
2024/01/21 07:34:27;;;;;;;5.70;3.97;;;0.00;89.00;;;;;;6186489;23;20194;-59
2024/01/21 07:36:54;;;;;;;8.43;5.20;;;0.00;89.30;;;;;;6186358;23;20185;-59
2024/01/21 07:39:22;;;;;;;6.93;4.23;;;0.00;89.50;;;;;;6186640;23;20174;-59
2024/01/21 07:41:50;;;;;;;8.37;4.80;;;0.00;89.80;;;;;;6186212;23;20151;-59
2024/01/21 07:44:17;;;;;;;6.60;4.60;;;0.00;90.00;;;;;;6186825;23;20176;-59
2024/01/21 07:46:44;;;;;;;4.83;4.27;;;0.10;90.00;;;;;;6186452;23;20759;-59
2024/01/21 07:49:11;;;;;;;5.93;4.37;;;0.20;90.10;;;;;;6186781;23;20593;-60
2024/01/21 07:51:39;;;;;;;6.43;4.37;;;0.30;90.00;;;;;;6186225;23;20240;-59
2024/01/21 07:54:06;;;;;;;8.00;4.67;;;0.40;90.00;;;;;;6161111;23;20170;-59
2024/01/21 07:56:33;;;;;;;9.00;4.20;;;0.50;90.00;;;;;;6186442;23;20217;-59
2024/01/21 07:59:00;;;;;;;9.83;4.23;;;0.50;89.80;;;;;;6186597;23;20471;-59
2024/01/21 08:01:27;;;;;;;6.17;3.93;;;0.60;89.60;;;;;;6186224;23;20171;-59
2024/01/21 08:03:54;;;;;;;8.47;4.93;;;0.70;89.40;;;;;;6186587;23;20208;-60
2024/01/21 08:06:21;;;;;;;6.40;4.40;;;0.80;89.30;;;;;;6186063;23;20216;-60
2024/01/21 08:08:49;;;;;;;7.87;4.47;;;0.80;89.30;;;;;;6186344;23;20495;-59
2024/01/21 08:11:16;;;;;;;4.57;3.90;;;1.00;89.20;;;;;;6186155;23;20183;-60
2024/01/21 08:13:44;;;;;;;6.40;4.37;;;1.10;89.00;;;;;;6186286;23;20479;-59
2024/01/21 08:16:13;;;;;;;9.33;4.30;;;1.20;88.80;;;;;;6186168;23;20190;-60
2024/01/21 08:18:40;;;;;;;7.20;4.97;;;1.30;88.60;;;;;;6186160;23;20452;-60
2024/01/21 08:21:08;;;;;;;13.53;4.97;;;1.40;88.40;;;;;;6186239;23;20194;-60
2024/01/21 08:23:35;;;;;;;5.83;4.23;;;1.40;88.30;;;;;;6186220;23;20452;-59
2024/01/21 08:26:05;;;;;;;5.93;4.43;;;1.50;88.10;;;;;;6186441;23;20501;-59
2024/01/21 08:28:32;;;;;;;6.10;4.10;;;1.60;87.90;;;;;;6186330;23;20216;-63
2024/01/21 08:31:02;;;;;;;4.73;3.80;;;1.70;87.70;;;;;;6185608;23;20597;-60
2024/01/21 08:33:30;;;;;;;8.23;4.20;;;1.70;87.30;;;;;;6186357;23;20182;-59
2024/01/21 08:35:57;;;;;;;7.50;3.90;;;1.80;87.20;;;;;;6186091;23;20190;-59
2024/01/21 08:38:24;;;;;;;8.33;3.80;;;1.90;87.10;;;;;;6185957;23;20177;-59
2024/01/21 08:40:52;;;;;;;5.40;3.63;;;2.00;86.90;;;;;;6186731;23;20195;-59
2024/01/21 08:43:19;;;;;;;5.10;3.57;;;2.10;87.30;;;;;;6185912;23;20669;-59
2024/01/21 08:45:46;;;;;;;4.33;3.50;;;2.20;86.50;;;;;;6186356;23;20179;-60
2024/01/21 08:48:13;;;;;;;4.67;3.70;;;2.30;86.20;;;;;;6185953;23;20181;-60
2024/01/21 08:50:40;;;;;;;5.87;3.73;;;2.40;86.00;;;;;;6186801;23;20168;-61
2024/01/21 08:53:08;;;;;;;5.70;4.10;;;2.50;85.80;;;;;;6183644;23;20179;-60
2024/01/21 08:55:35;;;;;;;5.57;3.97;;;2.60;85.50;;;;;;6185867;23;20282;-60
2024/01/21 08:58:02;;;;;;;7.00;4.20;;;2.70;85.20;;;;;;6185947;23;20245;-60
2024/01/21 09:00:30;;;;;;;6.77;3.80;;;2.80;85.10;;;;;;6185988;23;20182;-60
2024/01/21 09:02:57;;;;;;;7.30;4.33;;;2.90;84.90;;;;;;6186213;23;20175;-60
2024/01/21 09:05:27;;;;;;;11.50;4.63;;;2.90;84.80;;;;;;6186159;23;20237;-60
2024/01/21 09:07:54;;;;;;;6.20;3.93;;;3.00;84.90;;;;;;6186218;23;20189;-60
2024/01/21 09:10:21;;;;;;;5.40;3.97;;;3.10;84.90;;;;;;6186273;23;20174;-60
2024/01/21 09:12:49;;;;;;;10.97;4.17;;;3.20;85.50;;;;;;6186098;23;20249;-60
2024/01/21 09:15:21;;;;;;;9.80;4.37;;;3.20;84.80;;;;;;6186268;23;20197;-60
2024/01/21 09:17:51;;;;;;;5.90;4.53;;;3.30;85.00;;;;;;6186049;23;20159;-59
2024/01/21 09:20:19;;;;;;;11.00;4.30;;;3.40;85.10;;;;;;6186347;23;20181;-59
2024/01/21 09:22:46;;;;;;;4.37;3.87;;;3.40;85.20;;;;;;6187951;23;20169;-59
2024/01/21 09:25:13;;;;;;;4.70;4.10;;;3.50;85.30;;;;;;6187884;23;20241;-59
2024/01/21 09:27:40;;;;;;;6.27;4.47;;;3.60;85.40;;;;;;6187928;23;20183;-59
2024/01/21 09:30:09;;;;;;;5.87;4.50;;;3.70;85.50;;;;;;6162455;23;20253;-60
2024/01/21 09:32:36;;;;;;;7.10;4.73;;;3.80;85.40;;;;;;6187587;23;20643;-60
2024/01/21 09:35:03;;;;;;;8.97;4.70;;;3.90;85.10;;;;;;6188133;23;20203;-59
2024/01/21 09:37:31;;;;;;;7.53;4.87;;;3.90;85.00;;;;;;6187080;23;20475;-59
2024/01/21 09:39:58;;;;;;;7.73;5.40;;;4.00;85.00;;;;;;6187763;23;20175;-59
2024/01/21 09:42:26;;;;;;;7.83;5.57;;;4.10;85.00;;;;;;6187970;23;20596;-60
2024/01/21 09:44:54;;;;;;;10.97;6.10;;;4.10;84.90;;;;;;6187727;23;20892;-60
2024/01/21 09:47:21;;;;;;;11.97;5.33;;;4.20;84.90;;;;;;6187713;23;20609;-60
2024/01/21 09:49:50;;;;;;;7.40;5.13;;;4.30;85.10;;;;;;6187632;23;20237;-59
2024/01/21 09:52:18;;;;;;;10.17;5.80;;;4.40;85.10;;;;;;6187768;23;20175;-59
2024/01/21 09:54:50;;;;;;;9.10;5.77;;;4.50;85.10;;;;;;6187829;23;20168;-59
2024/01/21 09:57:17;;;;;;;9.07;6.03;;;4.60;85.00;;;;;;6187960;23;20159;-60
2024/01/21 09:59:46;;;;;;;11.97;6.60;;;4.70;84.90;;;;;;6187564;23;20603;-60
2024/01/21 10:02:16;;;;;;;10.13;6.80;;;4.80;84.70;;;;;;6188182;23;20242;-60
2024/01/21 10:04:45;;;;;;;12.40;7.10;;;4.90;84.50;;;;;;6186996;23;20233;-60
2024/01/21 10:07:13;;;;;;;8.90;5.57;;;5.00;84.40;;;;;;6187763;23;20234;-59
2024/01/21 10:09:41;;;;;;;9.90;6.13;;;5.00;84.30;;;;;;6187567;23;20167;-60
2024/01/21 10:12:09;;;;;;;10.90;7.00;;;5.10;84.30;;;;;;6187709;23;20185;-60
2024/01/21 10:14:37;;;;;;;12.20;8.33;;;5.20;84.30;;;;;;6187266;23;20178;-60
2024/01/21 10:17:04;;;;;;;10.03;7.30;;;5.30;84.30;;;;;;6187549;23;20206;-59
2024/01/21 10:19:33;;;;;;;10.17;7.20;;;5.40;84.30;;;;;;6187595;23;20175;-59
2024/01/21 10:22:21;;;;;;;12.27;7.90;;;5.40;84.20;;;;;;6187671;23;20191;-59
2024/01/21 10:24:49;;;;;;;13.63;7.93;;;5.60;84.30;;;;;;6187373;23;20163;-59
2024/01/21 10:27:16;;;;;;;10.50;6.77;;;5.60;84.40;;;;;;6187666;23;20198;-60
2024/01/21 10:29:45;;;;;;;12.30;8.63;;;5.70;84.50;;;;;;6187200;23;20180;-60
2024/01/21 10:32:14;;;;;;;10.73;7.37;;;5.70;84.50;;;;;;6186943;23;20491;-59
2024/01/21 10:34:45;;;;;;;11.83;8.23;;;5.80;84.60;;;;;;6187443;23;20172;-60
2024/01/21 10:37:16;;;;;;;12.13;8.40;;;5.80;84.40;;;;;;6187093;23;20188;-60
2024/01/21 10:39:46;;;;;;;14.33;8.80;;;6.00;84.40;;;;;;6187429;23;20182;-60
2024/01/21 10:42:14;;;;;;;11.97;9.23;;;6.00;84.30;;;;;;6187114;23;20177;-60
2024/01/21 10:44:43;;;;;;;18.60;9.37;;;6.10;84.40;;;;;;6187228;23;20199;-60
2024/01/21 10:47:12;;;;;;;16.43;9.00;;;6.20;84.30;;;;;;6187117;23;20191;-60
2024/01/21 10:49:40;;;;;;;14.03;8.93;;;6.30;84.30;;;;;;6186808;23;20241;-60
2024/01/21 10:52:09;;;;;;;15.87;9.73;;;6.30;84.20;;;;;;6187243;23;20163;-59
2024/01/21 10:54:37;;;;;;;11.47;8.50;;;6.40;84.10;;;;;;6186900;23;20175;-59
2024/01/21 10:57:05;;;;;;;12.50;8.97;;;6.50;84.00;;;;;;6186700;23;20632;-60
2024/01/21 10:59:34;;;;;;;12.50;8.53;;;6.50;84.10;;;;;;6187145;23;20182;-59
2024/01/21 11:02:02;;;;;;;10.73;8.10;;;6.60;84.20;;;;;;6187492;23;20160;-60
2024/01/21 11:04:29;;;;;;;12.93;8.63;;;6.70;84.00;;;;;;6186270;23;20599;-60
2024/01/21 11:07:00;;;;;;;13.33;7.57;;;6.70;83.70;;;;;;6186807;23;20170;-60
2024/01/21 11:09:30;;;;;;;9.37;7.23;;;6.80;83.70;;;;;;6186949;23;20242;-60
2024/01/21 11:11:57;;;;;;;10.33;7.23;;;6.90;83.70;;;;;;6186798;23;20291;-60
2024/01/21 11:14:38;;;;;;;9.40;6.97;;;6.90;83.40;;;;;;6186749;23;20179;-59
2024/01/21 11:17:10;;;;;;;11.77;7.10;;;7.00;83.00;;;;;;6187264;23;20598;-60
2024/01/21 11:19:49;;;;;;;9.20;6.33;;;7.10;83.00;;;;;;6186718;23;20190;-60
2024/01/21 11:22:23;;;;;;;7.40;5.90;;;7.10;82.70;;;;;;6186528;23;20170;-59
2024/01/21 11:24:53;;;;;;;6.30;5.70;;;7.20;82.50;;;;;;6186687;23;20466;-61
2024/01/21 11:27:26;;;;;;;11.83;6.87;;;7.30;82.40;;;;;;6186651;23;20184;-61
2024/01/21 11:29:56;;;;;;;8.97;6.63;;;7.40;82.20;;;;;;6186638;23;20568;-60
2024/01/21 11:32:28;;;;;;;8.40;6.20;;;7.50;82.10;;;;;;6186716;23;20189;-60
2024/01/21 11:35:07;;;;;;;9.80;5.87;;;7.60;81.80;;;;;;6187040;23;20510;-59
2024/01/21 11:37:36;;;;;;;10.60;6.70;;;7.70;81.40;;;;;;6186783;23;20179;-59
2024/01/21 11:40:04;;;;;;;7.67;6.00;;;7.80;81.20;;;;;;6186244;23;20178;-60
2024/01/21 11:42:34;;;;;;;12.57;6.77;;;7.80;81.20;;;;;;6160691;23;20600;-59
2024/01/21 11:45:03;;;;;;;8.07;7.07;;;7.90;81.00;;;;;;6186285;23;20545;-60
2024/01/21 11:47:31;;;;;;;9.67;7.10;;;8.00;80.80;;;;;;6186642;23;20206;-59
2024/01/21 11:50:00;;;;;;;8.83;7.43;;;8.10;81.00;;;;;;6186678;23;20186;-59
2024/01/21 11:52:28;;;;;;;11.00;7.63;;;8.10;80.70;;;;;;6186586;23;20176;-60
2024/01/21 11:54:55;;;;;;;10.53;6.93;;;8.20;80.60;;;;;;6186845;23;20270;-60
2024/01/21 11:57:23;;;;;;;11.00;8.07;;;8.30;80.50;;;;;;6186399;23;20608;-60
2024/01/21 11:59:51;;;;;;;7.70;6.33;;;8.30;80.20;;;;;;6186246;23;20172;-60
2024/01/21 12:02:19;;;;;;;10.07;6.73;;;8.30;80.30;;;;;;6186435;23;20164;-59
2024/01/21 12:04:46;;;;;;;8.07;6.77;;;8.40;80.40;;;;;;6186063;23;20201;-60
2024/01/21 12:07:15;;;;;;;9.07;7.03;;;8.50;80.40;;;;;;6186381;23;20151;-60
2024/01/21 12:09:42;;;;;;;10.13;7.07;;;8.60;80.10;;;;;;6186429;23;20175;-61
2024/01/21 12:12:10;;;;;;;11.33;7.03;;;8.60;79.60;;;;;;6186452;23;20172;-61
2024/01/21 12:14:37;;;;;;;10.67;7.97;;;8.70;79.70;;;;;;6160578;23;20177;-60
2024/01/21 12:17:04;;;;;;;9.63;7.60;;;8.70;79.50;;;;;;6186133;23;20208;-61
2024/01/21 12:19:32;;;;;;;10.27;7.07;;;8.80;78.90;;;;;;6186484;23;20256;-60
2024/01/21 12:21:59;;;;;;;9.23;7.00;;;8.80;79.20;;;;;;6186112;23;20247;-61
2024/01/21 12:24:26;;;;;;;9.63;7.30;;;8.80;78.40;;;;;;6186315;23;20243;-61
2024/01/21 12:26:57;;;;;;;8.80;7.13;;;8.90;78.30;;;;;;6186319;23;20226;-60
2024/01/21 12:29:34;;;;;;;10.60;6.43;;;8.90;78.10;;;;;;6186365;23;20173;-62
2024/01/21 12:32:04;;;;;;;11.50;6.93;;;8.90;77.80;;;;;;6186103;23;20160;-60
2024/01/21 12:34:33;;;;;;;10.33;7.10;;;8.90;77.20;;;;;;6185971;23;20172;-60
2024/01/21 12:37:00;;;;;;;10.57;6.80;;;8.90;77.20;;;;;;6186056;23;20637;-60
2024/01/21 12:39:27;;;;;;;11.70;7.37;;;8.90;77.50;;;;;;6186300;23;20211;-61
2024/01/21 12:41:54;;;;;;;8.83;6.83;;;9.00;77.40;;;;;;6185883;23;20198;-61
2024/01/21 12:44:21;;;;;;;8.60;7.20;;;9.00;76.80;;;;;;6186199;23;20206;-60
2024/01/21 12:46:48;;;;;;;10.60;7.27;;;9.10;76.20;;;;;;6185974;23;20182;-61
2024/01/21 12:49:16;;;;;;;9.70;6.67;;;9.10;76.10;;;;;;6186166;23;20600;-62
2024/01/21 12:51:45;;;;;;;12.87;6.77;;;9.10;75.90;;;;;;6185954;23;20598;-61